sensor_id;sensor_type;location;lat;lon;timestamp;temperature;humidity
47961;DHT22;33721;48.852;9.936;2023-02-05T00:01:56;-0.80;99.90
47961;DHT22;33721;48.852;9.936;2023-02-05T00:04:22;-0.80;99.90
47961;DHT22;33721;48.852;9.936;2023-02-05T00:06:48;-0.80;99.90
47961;DHT22;33721;48.852;9.936;2023-02-05T00:09:14;-0.80;99.90
47961;DHT22;33721;48.852;9.936;2023-02-05T00:11:40;-0.80;99.90
47961;DHT22;33721;48.852;9.936;2023-02-05T00:14:05;-0.80;99.90
47961;DHT22;33721;48.852;9.936;2023-02-05T00:16:33;-0.90;99.90
47961;DHT22;33721;48.852;9.936;2023-02-05T00:18:59;-0.90;99.90
47961;DHT22;33721;48.852;9.936;2023-02-05T00:21:25;-0.90;99.90
47961;DHT22;33721;48.852;9.936;2023-02-05T00:23:51;-1.00;99.90
47961;DHT22;33721;48.852;9.936;2023-02-05T00:26:17;-0.90;99.90
47961;DHT22;33721;48.852;9.936;2023-02-05T00:28:43;-0.90;99.90
47961;DHT22;33721;48.852;9.936;2023-02-05T00:31:19;-1.00;99.90
47961;DHT22;33721;48.852;9.936;2023-02-05T00:33:45;-1.10;99.90
47961;DHT22;33721;48.852;9.936;2023-02-05T00:36:12;-1.10;99.90
47961;DHT22;33721;48.852;9.936;2023-02-05T00:38:39;-1.20;99.90
47961;DHT22;33721;48.852;9.936;2023-02-05T00:41:05;-1.20;99.90
47961;DHT22;33721;48.852;9.936;2023-02-05T00:43:30;-1.10;99.90
47961;DHT22;33721;48.852;9.936;2023-02-05T00:45:56;-1.20;99.90
47961;DHT22;33721;48.852;9.936;2023-02-05T00:48:22;-1.20;99.90
47961;DHT22;33721;48.852;9.936;2023-02-05T00:50:50;-1.30;99.90
47961;DHT22;33721;48.852;9.936;2023-02-05T00:53:17;-1.40;99.90
47961;DHT22;33721;48.852;9.936;2023-02-05T00:55:43;-1.40;99.90
47961;DHT22;33721;48.852;9.936;2023-02-05T00:58:08;-1.50;99.90
47961;DHT22;33721;48.852;9.936;2023-02-05T01:00:34;-1.50;99.90
47961;DHT22;33721;48.852;9.936;2023-02-05T01:03:00;-1.50;99.90
47961;DHT22;33721;48.852;9.936;2023-02-05T01:05:26;-1.50;99.90
47961;DHT22;33721;48.852;9.936;2023-02-05T01:07:52;-1.50;99.90
47961;DHT22;33721;48.852;9.936;2023-02-05T01:10:18;-1.60;99.90
47961;DHT22;33721;48.852;9.936;2023-02-05T01:12:44;-1.60;99.90
47961;DHT22;33721;48.852;9.936;2023-02-05T01:15:12;-1.60;99.90
47961;DHT22;33721;48.852;9.936;2023-02-05T01:17:38;-1.60;99.90
47961;DHT22;33721;48.852;9.936;2023-02-05T01:20:04;-1.60;99.90
47961;DHT22;33721;48.852;9.936;2023-02-05T01:22:30;-1.60;99.90
47961;DHT22;33721;48.852;9.936;2023-02-05T01:24:56;-1.60;99.90
47961;DHT22;33721;48.852;9.936;2023-02-05T01:27:22;-1.60;99.90
47961;DHT22;33721;48.852;9.936;2023-02-05T01:29:49;-1.60;99.90
47961;DHT22;33721;48.852;9.936;2023-02-05T01:32:15;-1.60;99.90
47961;DHT22;33721;48.852;9.936;2023-02-05T01:34:41;-1.60;99.90
47961;DHT22;33721;48.852;9.936;2023-02-05T01:37:07;-1.70;99.90
47961;DHT22;33721;48.852;9.936;2023-02-05T01:39:33;-1.70;99.90
47961;DHT22;33721;48.852;9.936;2023-02-05T01:41:58;-1.70;99.90
47961;DHT22;33721;48.852;9.936;2023-02-05T01:44:25;-1.70;99.90
47961;DHT22;33721;48.852;9.936;2023-02-05T01:46:52;-1.80;99.90
47961;DHT22;33721;48.852;9.936;2023-02-05T01:49:25;-1.80;99.90
47961;DHT22;33721;48.852;9.936;2023-02-05T01:51:52;-1.80;99.90
47961;DHT22;33721;48.852;9.936;2023-02-05T01:54:21;-1.90;99.90
47961;DHT22;33721;48.852;9.936;2023-02-05T01:56:56;-1.90;99.90
47961;DHT22;33721;48.852;9.936;2023-02-05T01:59:27;-1.90;99.90
47961;DHT22;33721;48.852;9.936;2023-02-05T02:01:54;-1.80;99.90
47961;DHT22;33721;48.852;9.936;2023-02-05T02:07:01;-1.80;99.90
47961;DHT22;33721;48.852;9.936;2023-02-05T02:09:27;-1.80;99.90
47961;DHT22;33721;48.852;9.936;2023-02-05T02:11:53;-1.90;99.90
47961;DHT22;33721;48.852;9.936;2023-02-05T02:14:20;-1.90;99.90
47961;DHT22;33721;48.852;9.936;2023-02-05T02:16:47;-1.90;99.90
47961;DHT22;33721;48.852;9.936;2023-02-05T02:19:21;-2.10;99.90
47961;DHT22;33721;48.852;9.936;2023-02-05T02:22:00;-2.10;99.90
47961;DHT22;33721;48.852;9.936;2023-02-05T02:33:03;-2.10;99.90
47961;DHT22;33721;48.852;9.936;2023-02-05T02:38:29;-2.10;99.90
47961;DHT22;33721;48.852;9.936;2023-02-05T02:46:10;-2.20;99.90
47961;DHT22;33721;48.852;9.936;2023-02-05T02:48:39;-2.20;99.90
47961;DHT22;33721;48.852;9.936;2023-02-05T02:51:07;-2.20;99.90
47961;DHT22;33721;48.852;9.936;2023-02-05T02:53:39;-2.20;99.90
47961;DHT22;33721;48.852;9.936;2023-02-05T02:56:07;-2.30;99.90
47961;DHT22;33721;48.852;9.936;2023-02-05T02:58:47;-2.40;99.90
47961;DHT22;33721;48.852;9.936;2023-02-05T03:01:16;-2.50;99.90
47961;DHT22;33721;48.852;9.936;2023-02-05T03:03:48;-2.50;99.90
47961;DHT22;33721;48.852;9.936;2023-02-05T03:06:14;-2.60;99.90
47961;DHT22;33721;48.852;9.936;2023-02-05T03:11:15;-2.40;99.90
47961;DHT22;33721;48.852;9.936;2023-02-05T03:13:42;-2.40;99.90
47961;DHT22;33721;48.852;9.936;2023-02-05T03:16:09;-2.40;99.90
47961;DHT22;33721;48.852;9.936;2023-02-05T03:18:35;-2.40;99.90
47961;DHT22;33721;48.852;9.936;2023-02-05T03:21:17;-2.40;99.90
47961;DHT22;33721;48.852;9.936;2023-02-05T03:23:44;-2.40;99.90
47961;DHT22;33721;48.852;9.936;2023-02-05T03:26:39;-2.40;99.90
47961;DHT22;33721;48.852;9.936;2023-02-05T03:29:09;-2.30;99.90
47961;DHT22;33721;48.852;9.936;2023-02-05T03:37:40;-2.30;99.90
47961;DHT22;33721;48.852;9.936;2023-02-05T03:45:23;-2.40;99.90
47961;DHT22;33721;48.852;9.936;2023-02-05T03:55:41;-2.40;99.90
47961;DHT22;33721;48.852;9.936;2023-02-05T03:58:28;-2.40;99.90
47961;DHT22;33721;48.852;9.936;2023-02-05T04:00:56;-2.50;99.90
47961;DHT22;33721;48.852;9.936;2023-02-05T04:03:22;-2.40;99.90
47961;DHT22;33721;48.852;9.936;2023-02-05T04:05:48;-2.40;99.90
47961;DHT22;33721;48.852;9.936;2023-02-05T04:08:13;-2.40;99.90
47961;DHT22;33721;48.852;9.936;2023-02-05T04:10:39;-2.40;99.90
47961;DHT22;33721;48.852;9.936;2023-02-05T04:13:05;-2.40;99.90
47961;DHT22;33721;48.852;9.936;2023-02-05T04:15:30;-2.40;99.90
47961;DHT22;33721;48.852;9.936;2023-02-05T04:17:56;-2.40;99.90
47961;DHT22;33721;48.852;9.936;2023-02-05T04:20:24;-2.40;99.90
47961;DHT22;33721;48.852;9.936;2023-02-05T04:22:50;-2.40;99.90
47961;DHT22;33721;48.852;9.936;2023-02-05T04:25:15;-2.40;99.90
47961;DHT22;33721;48.852;9.936;2023-02-05T04:27:41;-2.40;99.90
47961;DHT22;33721;48.852;9.936;2023-02-05T04:30:07;-2.40;99.90
47961;DHT22;33721;48.852;9.936;2023-02-05T04:32:33;-2.40;99.90
47961;DHT22;33721;48.852;9.936;2023-02-05T04:34:58;-2.30;99.90
47961;DHT22;33721;48.852;9.936;2023-02-05T04:37:24;-2.30;99.90
47961;DHT22;33721;48.852;9.936;2023-02-05T04:39:50;-2.30;99.90
47961;DHT22;33721;48.852;9.936;2023-02-05T04:42:16;-2.30;99.90
47961;DHT22;33721;48.852;9.936;2023-02-05T04:44:41;-2.20;99.90
47961;DHT22;33721;48.852;9.936;2023-02-05T04:47:07;-2.20;99.90
47961;DHT22;33721;48.852;9.936;2023-02-05T04:49:34;-2.20;99.90
47961;DHT22;33721;48.852;9.936;2023-02-05T04:51:59;-2.20;99.90
47961;DHT22;33721;48.852;9.936;2023-02-05T04:54:25;-2.20;99.90
47961;DHT22;33721;48.852;9.936;2023-02-05T04:56:53;-2.20;99.90
47961;DHT22;33721;48.852;9.936;2023-02-05T04:59:18;-2.20;99.90
47961;DHT22;33721;48.852;9.936;2023-02-05T05:01:44;-2.20;99.90
47961;DHT22;33721;48.852;9.936;2023-02-05T05:04:09;-2.10;99.90
47961;DHT22;33721;48.852;9.936;2023-02-05T05:06:35;-2.10;99.90
47961;DHT22;33721;48.852;9.936;2023-02-05T05:09:01;-2.10;99.90
47961;DHT22;33721;48.852;9.936;2023-02-05T05:11:26;-2.10;99.90
47961;DHT22;33721;48.852;9.936;2023-02-05T05:13:52;-2.10;99.90
47961;DHT22;33721;48.852;9.936;2023-02-05T05:16:18;-2.10;99.90
47961;DHT22;33721;48.852;9.936;2023-02-05T05:18:44;-2.10;99.90
47961;DHT22;33721;48.852;9.936;2023-02-05T05:21:09;-2.10;99.90
47961;DHT22;33721;48.852;9.936;2023-02-05T05:23:36;-2.10;99.90
47961;DHT22;33721;48.852;9.936;2023-02-05T05:26:06;-2.10;99.90
47961;DHT22;33721;48.852;9.936;2023-02-05T05:28:32;-2.10;99.90
47961;DHT22;33721;48.852;9.936;2023-02-05T05:31:04;-2.10;99.90
47961;DHT22;33721;48.852;9.936;2023-02-05T05:33:30;-2.00;99.90
47961;DHT22;33721;48.852;9.936;2023-02-05T05:35:56;-2.00;99.90
47961;DHT22;33721;48.852;9.936;2023-02-05T05:38:21;-1.90;99.90
47961;DHT22;33721;48.852;9.936;2023-02-05T05:40:47;-1.90;99.90
47961;DHT22;33721;48.852;9.936;2023-02-05T05:43:31;-1.90;99.90
47961;DHT22;33721;48.852;9.936;2023-02-05T05:46:13;-1.90;99.90
47961;DHT22;33721;48.852;9.936;2023-02-05T05:48:40;-1.90;99.90
47961;DHT22;33721;48.852;9.936;2023-02-05T05:51:05;-1.80;99.90
47961;DHT22;33721;48.852;9.936;2023-02-05T05:53:31;-1.80;99.90
47961;DHT22;33721;48.852;9.936;2023-02-05T05:55:57;-1.90;99.90
47961;DHT22;33721;48.852;9.936;2023-02-05T05:58:23;-2.10;99.90
47961;DHT22;33721;48.852;9.936;2023-02-05T06:00:49;-2.10;99.90
47961;DHT22;33721;48.852;9.936;2023-02-05T06:03:14;-2.10;99.90
47961;DHT22;33721;48.852;9.936;2023-02-05T06:05:40;-2.00;99.90
47961;DHT22;33721;48.852;9.936;2023-02-05T06:08:06;-2.00;99.90
47961;DHT22;33721;48.852;9.936;2023-02-05T06:10:32;-2.00;99.90
47961;DHT22;33721;48.852;9.936;2023-02-05T06:12:58;-2.10;99.90
47961;DHT22;33721;48.852;9.936;2023-02-05T06:15:24;-2.00;99.90
47961;DHT22;33721;48.852;9.936;2023-02-05T06:17:51;-1.90;99.90
47961;DHT22;33721;48.852;9.936;2023-02-05T06:20:17;-1.90;99.90
47961;DHT22;33721;48.852;9.936;2023-02-05T06:22:43;-1.90;99.90
47961;DHT22;33721;48.852;9.936;2023-02-05T06:25:08;-1.80;99.90
47961;DHT22;33721;48.852;9.936;2023-02-05T06:27:34;-1.80;99.90
47961;DHT22;33721;48.852;9.936;2023-02-05T06:30:00;-1.70;99.90
47961;DHT22;33721;48.852;9.936;2023-02-05T06:32:26;-1.70;99.90
47961;DHT22;33721;48.852;9.936;2023-02-05T06:34:51;-1.70;99.90
47961;DHT22;33721;48.852;9.936;2023-02-05T06:37:18;-1.60;99.90
47961;DHT22;33721;48.852;9.936;2023-02-05T06:39:43;-1.50;99.90
47961;DHT22;33721;48.852;9.936;2023-02-05T06:42:09;-1.50;99.90
47961;DHT22;33721;48.852;9.936;2023-02-05T06:44:35;-1.50;99.90
47961;DHT22;33721;48.852;9.936;2023-02-05T06:47:01;-1.50;99.90
47961;DHT22;33721;48.852;9.936;2023-02-05T06:49:27;-1.40;99.90
47961;DHT22;33721;48.852;9.936;2023-02-05T06:51:53;-1.40;99.90
47961;DHT22;33721;48.852;9.936;2023-02-05T06:54:18;-1.40;99.90
47961;DHT22;33721;48.852;9.936;2023-02-05T06:56:44;-1.50;99.90
47961;DHT22;33721;48.852;9.936;2023-02-05T06:59:10;-1.40;99.90
47961;DHT22;33721;48.852;9.936;2023-02-05T07:01:35;-1.40;99.90
47961;DHT22;33721;48.852;9.936;2023-02-05T07:04:01;-1.50;99.90
47961;DHT22;33721;48.852;9.936;2023-02-05T07:06:27;-1.40;99.90
47961;DHT22;33721;48.852;9.936;2023-02-05T07:08:54;-1.30;99.90
47961;DHT22;33721;48.852;9.936;2023-02-05T07:11:20;-1.40;99.90
47961;DHT22;33721;48.852;9.936;2023-02-05T07:13:46;-1.40;99.90
47961;DHT22;33721;48.852;9.936;2023-02-05T07:16:12;-1.40;99.90
47961;DHT22;33721;48.852;9.936;2023-02-05T07:18:38;-1.40;99.90
47961;DHT22;33721;48.852;9.936;2023-02-05T07:21:05;-1.40;99.90
47961;DHT22;33721;48.852;9.936;2023-02-05T07:23:31;-1.30;99.90
47961;DHT22;33721;48.852;9.936;2023-02-05T07:25:57;-1.30;99.90
47961;DHT22;33721;48.852;9.936;2023-02-05T07:28:22;-1.40;99.90
47961;DHT22;33721;48.852;9.936;2023-02-05T07:30:48;-1.40;99.90
47961;DHT22;33721;48.852;9.936;2023-02-05T07:33:15;-1.40;99.90
47961;DHT22;33721;48.852;9.936;2023-02-05T07:35:40;-1.40;99.90
47961;DHT22;33721;48.852;9.936;2023-02-05T07:38:06;-1.30;99.90
47961;DHT22;33721;48.852;9.936;2023-02-05T07:40:32;-1.30;99.90
47961;DHT22;33721;48.852;9.936;2023-02-05T07:42:58;-1.20;99.90
47961;DHT22;33721;48.852;9.936;2023-02-05T07:45:23;-1.20;99.90
47961;DHT22;33721;48.852;9.936;2023-02-05T07:47:49;-1.10;99.90
47961;DHT22;33721;48.852;9.936;2023-02-05T07:50:15;-1.00;99.90
47961;DHT22;33721;48.852;9.936;2023-02-05T07:52:41;-1.00;99.90
47961;DHT22;33721;48.852;9.936;2023-02-05T07:55:07;-1.00;99.90
47961;DHT22;33721;48.852;9.936;2023-02-05T07:57:33;-1.10;99.90
47961;DHT22;33721;48.852;9.936;2023-02-05T07:59:59;-1.10;99.90
47961;DHT22;33721;48.852;9.936;2023-02-05T08:02:25;-0.90;99.90
47961;DHT22;33721;48.852;9.936;2023-02-05T08:04:50;-0.90;99.90
47961;DHT22;33721;48.852;9.936;2023-02-05T08:07:16;-0.80;99.90
47961;DHT22;33721;48.852;9.936;2023-02-05T08:09:41;-0.80;99.90
47961;DHT22;33721;48.852;9.936;2023-02-05T08:12:07;-0.80;99.90
47961;DHT22;33721;48.852;9.936;2023-02-05T08:14:34;-0.80;99.90
47961;DHT22;33721;48.852;9.936;2023-02-05T08:17:00;-0.70;99.90
47961;DHT22;33721;48.852;9.936;2023-02-05T08:19:25;-0.60;99.90
47961;DHT22;33721;48.852;9.936;2023-02-05T08:21:51;-0.50;99.90
47961;DHT22;33721;48.852;9.936;2023-02-05T08:24:17;-0.40;99.90
47961;DHT22;33721;48.852;9.936;2023-02-05T08:26:43;-0.30;99.90
47961;DHT22;33721;48.852;9.936;2023-02-05T08:29:09;-0.30;99.90
47961;DHT22;33721;48.852;9.936;2023-02-05T08:31:35;-0.30;99.90
47961;DHT22;33721;48.852;9.936;2023-02-05T08:34:01;-0.30;99.90
47961;DHT22;33721;48.852;9.936;2023-02-05T08:36:28;-0.20;99.90
47961;DHT22;33721;48.852;9.936;2023-02-05T08:38:54;-0.20;99.90
47961;DHT22;33721;48.852;9.936;2023-02-05T08:41:19;-0.20;99.90
47961;DHT22;33721;48.852;9.936;2023-02-05T08:43:48;-0.10;99.90
47961;DHT22;33721;48.852;9.936;2023-02-05T08:46:16;0.00;99.90
47961;DHT22;33721;48.852;9.936;2023-02-05T08:48:43;0.10;99.90
47961;DHT22;33721;48.852;9.936;2023-02-05T08:51:11;0.10;99.90
47961;DHT22;33721;48.852;9.936;2023-02-05T08:53:37;0.10;99.90
47961;DHT22;33721;48.852;9.936;2023-02-05T08:56:03;0.00;99.90
47961;DHT22;33721;48.852;9.936;2023-02-05T08:58:30;0.00;99.90
47961;DHT22;33721;48.852;9.936;2023-02-05T09:01:09;-0.10;99.90
47961;DHT22;33721;48.852;9.936;2023-02-05T09:03:35;0.00;99.90
47961;DHT22;33721;48.852;9.936;2023-02-05T09:06:05;0.00;99.90
47961;DHT22;33721;48.852;9.936;2023-02-05T09:08:31;0.00;99.90
47961;DHT22;33721;48.852;9.936;2023-02-05T09:10:57;0.10;99.90
47961;DHT22;33721;48.852;9.936;2023-02-05T09:13:22;0.20;99.90
47961;DHT22;33721;48.852;9.936;2023-02-05T09:15:49;0.20;99.90
47961;DHT22;33721;48.852;9.936;2023-02-05T09:18:15;0.20;99.90
47961;DHT22;33721;48.852;9.936;2023-02-05T09:20:45;0.30;99.90
47961;DHT22;33721;48.852;9.936;2023-02-05T09:23:12;0.40;99.90
47961;DHT22;33721;48.852;9.936;2023-02-05T09:25:39;0.50;99.90
47961;DHT22;33721;48.852;9.936;2023-02-05T09:28:06;0.60;99.90
47961;DHT22;33721;48.852;9.936;2023-02-05T09:30:37;0.60;99.90
47961;DHT22;33721;48.852;9.936;2023-02-05T09:33:04;0.70;99.90
47961;DHT22;33721;48.852;9.936;2023-02-05T09:35:34;0.90;99.90
47961;DHT22;33721;48.852;9.936;2023-02-05T09:38:00;0.90;99.90
47961;DHT22;33721;48.852;9.936;2023-02-05T09:40:33;1.00;99.90
47961;DHT22;33721;48.852;9.936;2023-02-05T09:45:50;1.10;99.90
47961;DHT22;33721;48.852;9.936;2023-02-05T09:48:57;1.10;99.90
47961;DHT22;33721;48.852;9.936;2023-02-05T09:51:35;1.10;99.90
47961;DHT22;33721;48.852;9.936;2023-02-05T09:54:15;1.00;99.90
47961;DHT22;33721;48.852;9.936;2023-02-05T09:56:43;0.90;99.90
47961;DHT22;33721;48.852;9.936;2023-02-05T09:59:18;0.90;99.90
47961;DHT22;33721;48.852;9.936;2023-02-05T10:01:57;0.90;99.90
47961;DHT22;33721;48.852;9.936;2023-02-05T10:04:24;0.90;99.90
47961;DHT22;33721;48.852;9.936;2023-02-05T10:09:51;1.00;99.90
47961;DHT22;33721;48.852;9.936;2023-02-05T10:12:51;1.00;99.90
47961;DHT22;33721;48.852;9.936;2023-02-05T10:15:54;1.10;99.90
47961;DHT22;33721;48.852;9.936;2023-02-05T10:26:14;1.10;99.90
47961;DHT22;33721;48.852;9.936;2023-02-05T10:29:07;1.10;99.90
47961;DHT22;33721;48.852;9.936;2023-02-05T10:37:02;1.20;99.90
47961;DHT22;33721;48.852;9.936;2023-02-05T10:39:29;1.30;99.90
47961;DHT22;33721;48.852;9.936;2023-02-05T10:42:06;1.40;99.90
47961;DHT22;33721;48.852;9.936;2023-02-05T10:44:42;1.40;99.90
47961;DHT22;33721;48.852;9.936;2023-02-05T10:47:17;1.30;99.90
47961;DHT22;33721;48.852;9.936;2023-02-05T10:52:17;1.40;99.90
47961;DHT22;33721;48.852;9.936;2023-02-05T10:54:44;1.40;99.90
47961;DHT22;33721;48.852;9.936;2023-02-05T10:57:19;1.40;99.90
47961;DHT22;33721;48.852;9.936;2023-02-05T10:59:57;1.30;99.90
47961;DHT22;33721;48.852;9.936;2023-02-05T11:02:31;1.20;99.90
47961;DHT22;33721;48.852;9.936;2023-02-05T11:05:02;1.20;99.90
47961;DHT22;33721;48.852;9.936;2023-02-05T11:07:37;1.20;99.90
47961;DHT22;33721;48.852;9.936;2023-02-05T11:10:16;1.10;99.90
47961;DHT22;33721;48.852;9.936;2023-02-05T11:13:18;1.20;99.90
47961;DHT22;33721;48.852;9.936;2023-02-05T11:18:24;1.20;99.90
47961;DHT22;33721;48.852;9.936;2023-02-05T11:21:01;1.20;99.90
47961;DHT22;33721;48.852;9.936;2023-02-05T11:23:28;1.30;99.90
47961;DHT22;33721;48.852;9.936;2023-02-05T11:26:05;1.20;99.90
47961;DHT22;33721;48.852;9.936;2023-02-05T11:28:37;1.20;99.90
47961;DHT22;33721;48.852;9.936;2023-02-05T11:31:25;1.20;99.90
47961;DHT22;33721;48.852;9.936;2023-02-05T11:36:36;1.10;99.90
47961;DHT22;33721;48.852;9.936;2023-02-05T11:39:04;1.20;99.90
47961;DHT22;33721;48.852;9.936;2023-02-05T11:41:37;1.10;99.90
47961;DHT22;33721;48.852;9.936;2023-02-05T11:46:43;1.10;99.90
47961;DHT22;33721;48.852;9.936;2023-02-05T11:49:23;1.10;99.90
47961;DHT22;33721;48.852;9.936;2023-02-05T11:51:53;1.10;99.90
47961;DHT22;33721;48.852;9.936;2023-02-05T11:54:33;1.10;99.90
47961;DHT22;33721;48.852;9.936;2023-02-05T11:57:22;1.10;99.90
47961;DHT22;33721;48.852;9.936;2023-02-05T12:08:09;1.20;99.90
47961;DHT22;33721;48.852;9.936;2023-02-05T12:15:38;1.20;99.90
47961;DHT22;33721;48.852;9.936;2023-02-05T12:23:39;1.20;99.90
47961;DHT22;33721;48.852;9.936;2023-02-05T12:36:58;1.30;99.90
47961;DHT22;33721;48.852;9.936;2023-02-05T12:39:37;1.30;99.90
47961;DHT22;33721;48.852;9.936;2023-02-05T12:42:27;1.30;99.90
47961;DHT22;33721;48.852;9.936;2023-02-05T12:55:35;1.50;99.90
47961;DHT22;33721;48.852;9.936;2023-02-05T12:58:02;1.50;99.90
47961;DHT22;33721;48.852;9.936;2023-02-05T13:01:12;1.50;99.90
47961;DHT22;33721;48.852;9.936;2023-02-05T13:03:32;1.50;99.90
47961;DHT22;33721;48.852;9.936;2023-02-05T13:06:09;1.50;99.90
47961;DHT22;33721;48.852;9.936;2023-02-05T13:08:46;1.60;99.90
47961;DHT22;33721;48.852;9.936;2023-02-05T13:11:27;1.50;99.90
47961;DHT22;33721;48.852;9.936;2023-02-05T13:14:02;1.50;99.90
47961;DHT22;33721;48.852;9.936;2023-02-05T13:16:40;1.60;99.90
47961;DHT22;33721;48.852;9.936;2023-02-05T13:19:32;1.50;99.90
47961;DHT22;33721;48.852;9.936;2023-02-05T13:22:03;1.50;99.90
47961;DHT22;33721;48.852;9.936;2023-02-05T13:25:00;1.60;99.90
47961;DHT22;33721;48.852;9.936;2023-02-05T13:27:50;1.50;99.90
47961;DHT22;33721;48.852;9.936;2023-02-05T13:30:40;1.50;99.90
47961;DHT22;33721;48.852;9.936;2023-02-05T13:33:07;1.50;99.90
47961;DHT22;33721;48.852;9.936;2023-02-05T13:35:42;1.40;99.90
47961;DHT22;33721;48.852;9.936;2023-02-05T13:52:18;1.40;99.90
47961;DHT22;33721;48.852;9.936;2023-02-05T13:55:01;1.40;99.90
47961;DHT22;33721;48.852;9.936;2023-02-05T14:00:33;1.40;99.90
47961;DHT22;33721;48.852;9.936;2023-02-05T14:03:03;1.40;99.90
47961;DHT22;33721;48.852;9.936;2023-02-05T14:05:41;1.40;99.90
47961;DHT22;33721;48.852;9.936;2023-02-05T14:08:27;1.40;99.90
47961;DHT22;33721;48.852;9.936;2023-02-05T14:11:00;1.40;99.90
47961;DHT22;33721;48.852;9.936;2023-02-05T14:13:30;1.40;99.90
47961;DHT22;33721;48.852;9.936;2023-02-05T14:19:14;1.40;99.90
47961;DHT22;33721;48.852;9.936;2023-02-05T14:21:56;1.40;99.90
47961;DHT22;33721;48.852;9.936;2023-02-05T14:24:44;1.40;99.90
47961;DHT22;33721;48.852;9.936;2023-02-05T14:33:00;1.40;99.90
47961;DHT22;33721;48.852;9.936;2023-02-05T14:35:35;1.40;99.90
47961;DHT22;33721;48.852;9.936;2023-02-05T14:38:24;1.40;99.90
47961;DHT22;33721;48.852;9.936;2023-02-05T14:41:07;1.40;99.90
47961;DHT22;33721;48.852;9.936;2023-02-05T14:43:38;1.40;99.90
47961;DHT22;33721;48.852;9.936;2023-02-05T14:46:31;1.40;99.90
47961;DHT22;33721;48.852;9.936;2023-02-05T14:48:59;1.40;99.90
47961;DHT22;33721;48.852;9.936;2023-02-05T14:51:39;1.40;99.90
47961;DHT22;33721;48.852;9.936;2023-02-05T14:54:27;1.30;99.90
47961;DHT22;33721;48.852;9.936;2023-02-05T14:57:11;1.30;99.90
47961;DHT22;33721;48.852;9.936;2023-02-05T14:59:49;1.30;99.90
47961;DHT22;33721;48.852;9.936;2023-02-05T15:02:49;1.20;99.90
47961;DHT22;33721;48.852;9.936;2023-02-05T15:05:39;1.20;99.90
47961;DHT22;33721;48.852;9.936;2023-02-05T15:16:47;1.30;99.90
47961;DHT22;33721;48.852;9.936;2023-02-05T15:19:15;1.20;99.90
47961;DHT22;33721;48.852;9.936;2023-02-05T15:21:46;1.20;99.90
47961;DHT22;33721;48.852;9.936;2023-02-05T15:26:55;1.30;99.90
47961;DHT22;33721;48.852;9.936;2023-02-05T15:31:53;1.30;99.90
47961;DHT22;33721;48.852;9.936;2023-02-05T15:34:50;1.30;99.90
47961;DHT22;33721;48.852;9.936;2023-02-05T15:37:24;1.30;99.90
47961;DHT22;33721;48.852;9.936;2023-02-05T15:40:01;1.30;99.90
47961;DHT22;33721;48.852;9.936;2023-02-05T15:42:31;1.30;99.90
47961;DHT22;33721;48.852;9.936;2023-02-05T15:45:15;1.30;99.90
47961;DHT22;33721;48.852;9.936;2023-02-05T15:47:42;1.30;99.90
47961;DHT22;33721;48.852;9.936;2023-02-05T15:50:18;1.30;99.90
47961;DHT22;33721;48.852;9.936;2023-02-05T15:52:44;1.30;99.90
47961;DHT22;33721;48.852;9.936;2023-02-05T15:55:11;1.20;99.90
47961;DHT22;33721;48.852;9.936;2023-02-05T15:57:40;1.20;99.90
47961;DHT22;33721;48.852;9.936;2023-02-05T16:00:07;1.20;99.90
47961;DHT22;33721;48.852;9.936;2023-02-05T16:02:35;1.20;99.90
47961;DHT22;33721;48.852;9.936;2023-02-05T16:05:18;1.20;99.90
47961;DHT22;33721;48.852;9.936;2023-02-05T16:07:45;1.20;99.90
47961;DHT22;33721;48.852;9.936;2023-02-05T16:10:17;1.20;99.90
47961;DHT22;33721;48.852;9.936;2023-02-05T16:13:16;1.20;99.90
47961;DHT22;33721;48.852;9.936;2023-02-05T16:15:39;1.20;99.90
47961;DHT22;33721;48.852;9.936;2023-02-05T16:18:10;1.20;99.90
47961;DHT22;33721;48.852;9.936;2023-02-05T16:20:39;1.20;99.90
47961;DHT22;33721;48.852;9.936;2023-02-05T16:23:06;1.30;99.90
47961;DHT22;33721;48.852;9.936;2023-02-05T16:27:59;1.30;99.90
47961;DHT22;33721;48.852;9.936;2023-02-05T16:30:30;1.30;99.90
47961;DHT22;33721;48.852;9.936;2023-02-05T16:32:56;1.40;99.90
47961;DHT22;33721;48.852;9.936;2023-02-05T16:35:25;1.30;99.90
47961;DHT22;33721;48.852;9.936;2023-02-05T16:37:55;1.30;99.90
47961;DHT22;33721;48.852;9.936;2023-02-05T16:40:54;1.30;99.90
47961;DHT22;33721;48.852;9.936;2023-02-05T16:45:41;1.40;99.90
47961;DHT22;33721;48.852;9.936;2023-02-05T16:48:24;1.40;99.90
47961;DHT22;33721;48.852;9.936;2023-02-05T16:50:51;1.40;99.90
47961;DHT22;33721;48.852;9.936;2023-02-05T16:53:19;1.40;99.90
47961;DHT22;33721;48.852;9.936;2023-02-05T16:55:45;1.40;99.90
47961;DHT22;33721;48.852;9.936;2023-02-05T16:58:21;1.40;99.90
47961;DHT22;33721;48.852;9.936;2023-02-05T17:00:54;1.40;99.90
47961;DHT22;33721;48.852;9.936;2023-02-05T17:03:20;1.40;99.90
47961;DHT22;33721;48.852;9.936;2023-02-05T17:05:53;1.40;99.90
47961;DHT22;33721;48.852;9.936;2023-02-05T17:08:24;1.40;99.90
47961;DHT22;33721;48.852;9.936;2023-02-05T17:10:54;1.50;99.90
47961;DHT22;33721;48.852;9.936;2023-02-05T17:13:27;1.50;99.90
47961;DHT22;33721;48.852;9.936;2023-02-05T17:15:53;1.50;99.90
47961;DHT22;33721;48.852;9.936;2023-02-05T17:20:44;1.50;99.90
47961;DHT22;33721;48.852;9.936;2023-02-05T17:23:11;1.40;99.90
47961;DHT22;33721;48.852;9.936;2023-02-05T17:25:51;1.40;99.90
47961;DHT22;33721;48.852;9.936;2023-02-05T17:28:20;1.40;99.90
47961;DHT22;33721;48.852;9.936;2023-02-05T17:30:47;1.40;99.90
47961;DHT22;33721;48.852;9.936;2023-02-05T17:33:15;1.40;99.90
47961;DHT22;33721;48.852;9.936;2023-02-05T17:35:41;1.40;99.90
47961;DHT22;33721;48.852;9.936;2023-02-05T17:38:06;1.40;99.90
47961;DHT22;33721;48.852;9.936;2023-02-05T17:40:32;1.40;99.90
47961;DHT22;33721;48.852;9.936;2023-02-05T17:42:57;1.40;99.90
47961;DHT22;33721;48.852;9.936;2023-02-05T17:45:24;1.40;99.90
47961;DHT22;33721;48.852;9.936;2023-02-05T17:47:50;1.40;99.90
47961;DHT22;33721;48.852;9.936;2023-02-05T17:50:16;1.40;99.90
47961;DHT22;33721;48.852;9.936;2023-02-05T17:52:42;1.40;99.90
47961;DHT22;33721;48.852;9.936;2023-02-05T17:55:10;1.40;99.90
47961;DHT22;33721;48.852;9.936;2023-02-05T17:57:38;1.40;99.90
47961;DHT22;33721;48.852;9.936;2023-02-05T18:00:04;1.40;99.90
47961;DHT22;33721;48.852;9.936;2023-02-05T18:02:30;1.40;99.90
47961;DHT22;33721;48.852;9.936;2023-02-05T18:04:56;1.40;99.90
47961;DHT22;33721;48.852;9.936;2023-02-05T18:07:28;1.50;99.90
47961;DHT22;33721;48.852;9.936;2023-02-05T18:09:55;1.50;99.90
47961;DHT22;33721;48.852;9.936;2023-02-05T18:12:20;1.40;99.90
47961;DHT22;33721;48.852;9.936;2023-02-05T18:14:46;1.50;99.90
47961;DHT22;33721;48.852;9.936;2023-02-05T18:17:11;1.50;99.90
47961;DHT22;33721;48.852;9.936;2023-02-05T18:19:37;1.50;99.90
47961;DHT22;33721;48.852;9.936;2023-02-05T18:22:02;1.50;99.90
47961;DHT22;33721;48.852;9.936;2023-02-05T18:24:28;1.50;99.90
47961;DHT22;33721;48.852;9.936;2023-02-05T18:26:53;1.50;99.90
47961;DHT22;33721;48.852;9.936;2023-02-05T18:29:19;1.50;99.90
47961;DHT22;33721;48.852;9.936;2023-02-05T18:31:46;1.40;99.90
47961;DHT22;33721;48.852;9.936;2023-02-05T18:34:12;1.40;99.90